Time;durP1;ratioP1;P1;durP2;ratioP2;P2;SDS_P1;SDS_P2;PMS_P1;PMS_P2;Temp;Humidity;BMP_temperature;BMP_pressure;BME280_temperature;BME280_humidity;BME280_pressure;Samples;Min_cycle;Max_cycle;Signal;HPM_P1;HPM_P2
2021/08/10 00:00:38;;;;;;;9.61;6.82;;;;;;;26.25;53.96;99457.20;370865;102;2072038;-76
2021/08/10 00:01:44;;;;;;;8.50;6.54;;;;;;;26.17;54.09;99455.19;362637;104;1962046;-77
2021/08/10 00:02:58;;;;;;;8.48;6.13;;;;;;;26.21;54.22;99455.36;386641;104;2867016;-76
2021/08/10 00:04:10;;;;;;;8.56;6.21;;;;;;;26.23;54.05;99455.88;398147;103;1986049;-76
2021/08/10 00:05:15;;;;;;;8.47;6.05;;;;;;;26.12;54.01;99458.08;378310;105;1962017;-76
2021/08/10 00:06:27;;;;;;;9.79;6.39;;;;;;;26.21;53.98;99455.36;374924;109;1987090;-76
2021/08/10 00:07:32;;;;;;;10.39;6.39;;;;;;;26.09;54.02;99455.91;357513;113;1962981;-78
2021/08/10 00:08:46;;;;;;;8.18;6.42;;;;;;;26.14;54.34;99458.55;330328;103;2325048;-77
2021/08/10 00:09:52;;;;;;;11.24;7.58;;;;;;;26.11;54.08;99461.96;373568;107;1969972;-78
2021/08/10 00:11:15;;;;;;;9.38;6.40;;;;;;;26.12;53.95;99465.54;376647;107;1963012;-78
2021/08/10 00:12:29;;;;;;;9.68;6.31;;;;;;;26.28;53.92;99455.75;392020;104;1987004;-78
2021/08/10 00:13:35;;;;;;;10.32;6.58;;;;;;;26.15;54.04;99457.45;371404;107;1963877;-79
2021/08/10 00:14:48;;;;;;;8.52;6.68;;;;;;;26.19;54.06;99461.20;360647;104;2588043;-78
2021/08/10 00:15:54;;;;;;;8.68;6.67;;;;;;;26.05;54.05;99452.97;375926;107;1962056;-78
2021/08/10 00:17:18;;;;;;;9.98;7.19;;;;;;;26.00;54.09;99458.63;331234;107;2784965;-79
2021/08/10 00:18:30;;;;;;;8.38;6.05;;;;;;;26.07;54.37;99464.55;384903;108;1963007;-78
2021/08/10 00:19:35;;;;;;;9.36;6.48;;;;;;;25.95;54.35;99467.05;363586;110;1970042;-75
2021/08/10 00:20:50;;;;;;;8.68;6.54;;;;;;;26.04;54.46;99456.06;402298;104;1985883;-77
2021/08/10 00:21:57;;;;;;;9.26;7.00;;;;;;;25.93;54.26;99462.95;380291;105;1964008;-78
2021/08/10 00:23:20;;;;;;;9.93;6.61;;;;;;;25.91;54.48;99462.44;353797;105;1961051;-77
2021/08/10 00:24:33;;;;;;;9.82;7.01;;;;;;;26.03;54.61;99457.17;392874;104;1962049;-77
2021/08/10 00:25:38;;;;;;;8.88;6.64;;;;;;;25.93;54.48;99457.42;360641;109;1968943;-77
2021/08/10 00:26:51;;;;;;;8.41;6.23;;;;;;;26.04;54.55;99458.84;333481;103;2304879;-77
2021/08/10 00:27:59;;;;;;;11.33;6.94;;;;;;;25.86;54.80;99461.45;372118;107;1963128;-77
2021/08/10 00:29:11;;;;;;;8.27;6.61;;;;;;;25.96;54.67;99459.55;334429;104;2303981;-76
2021/08/10 00:30:17;;;;;;;9.85;6.62;;;;;;;25.85;54.76;99458.98;375912;106;1964044;-77
2021/08/10 00:31:31;;;;;;;9.31;6.74;;;;;;;25.93;54.73;99455.47;392376;104;1973009;-76
2021/08/10 00:32:37;;;;;;;10.00;6.97;;;;;;;25.73;55.25;99451.21;337154;106;2464019;-77
2021/08/10 00:34:00;;;;;;;8.59;6.61;;;;;;;25.71;55.15;99458.19;376130;106;1961988;-77
2021/08/10 00:35:08;;;;;;;8.19;6.31;;;;;;;25.94;54.27;99448.81;376374;106;1961947;-76
2021/08/10 00:36:20;;;;;;;10.24;6.71;;;;;;;25.99;54.54;99450.66;396554;104;1985998;-77
2021/08/10 00:37:28;;;;;;;8.97;6.98;;;;;;;25.81;54.74;99452.42;380469;105;1961904;-77
2021/08/10 00:38:59;;;;;;;9.17;6.12;;;;;;;25.83;54.98;99452.94;407372;99;1986041;-75
2021/08/10 00:40:09;;;;;;;10.52;6.84;;;;;;;25.70;54.96;99453.80;390542;103;1964098;-75
2021/08/10 00:41:41;;;;;;;9.73;7.60;;;;;;;25.74;55.34;99457.55;410597;99;2072045;-76
2021/08/10 00:42:47;;;;;;;8.69;6.47;;;;;;;25.81;54.77;99455.19;390142;102;1961084;-76
2021/08/10 00:43:54;;;;;;;10.22;7.13;;;;;;;25.84;54.80;99455.40;389413;103;1960896;-76
2021/08/10 00:45:10;;;;;;;10.12;6.88;;;;;;;25.91;54.94;99460.52;392824;104;1987035;-76
2021/08/10 00:46:17;;;;;;;9.43;6.77;;;;;;;25.97;54.48;99459.25;378224;106;1961997;-76
2021/08/10 00:47:30;;;;;;;10.18;7.42;;;;;;;25.92;54.74;99461.33;385853;105;1984819;-75
2021/08/10 00:48:42;;;;;;;11.09;7.17;;;;;;;25.71;55.17;99449.88;393830;104;1960896;-75
2021/08/10 00:49:48;;;;;;;9.76;7.26;;;;;;;25.69;55.09;99465.97;375228;103;1967909;-75
2021/08/10 00:50:55;;;;;;;9.16;7.29;;;;;;;25.66;54.88;99464.64;369018;107;1960989;-76
2021/08/10 00:52:08;;;;;;;10.72;8.36;;;;;;;25.75;54.90;99457.26;342604;104;2780831;-75
2021/08/10 00:53:14;;;;;;;11.13;7.80;;;;;;;25.73;54.73;99458.70;365791;107;1960759;-75
2021/08/10 00:54:27;;;;;;;11.81;7.41;;;;;;;25.82;54.85;99451.27;388900;106;1984821;-75
2021/08/10 00:55:33;;;;;;;12.31;7.55;;;;;;;25.74;54.56;99457.55;326993;107;2725816;-76
2021/08/10 00:56:58;;;;;;;11.26;7.56;;;;;;;25.81;54.45;99452.42;359679;109;2900937;-75
2021/08/10 00:58:10;;;;;;;9.32;7.59;;;;;;;25.79;54.87;99457.44;388907;104;2071988;-75
2021/08/10 00:59:16;;;;;;;10.34;7.78;;;;;;;25.76;54.47;99471.91;370429;108;1962051;-75
2021/08/10 01:00:28;;;;;;;9.84;7.66;;;;;;;25.87;54.71;99460.30;375532;109;1985983;-75
2021/08/10 01:01:35;;;;;;;9.33;6.87;;;;;;;25.83;54.34;99459.28;307715;111;2187943;-75
2021/08/10 01:02:59;;;;;;;8.94;7.18;;;;;;;25.88;54.37;99458.38;354764;112;1962935;-76
2021/08/10 01:04:11;;;;;;;10.81;7.48;;;;;;;25.82;54.70;99462.34;391634;104;2071064;-76
2021/08/10 01:05:18;;;;;;;9.41;7.03;;;;;;;25.66;54.78;99465.45;375681;106;1964857;-76
2021/08/10 01:06:37;;;;;;;10.60;7.61;;;;;;;25.70;54.45;99471.20;368752;108;1962054;-76
2021/08/10 01:07:52;;;;;;;9.42;6.95;;;;;;;25.67;55.17;99469.06;395225;104;1986990;-76
2021/08/10 01:09:04;;;;;;;9.52;7.42;;;;;;;25.65;54.73;99465.78;377451;106;1962031;-76
2021/08/10 01:10:21;;;;;;;8.97;7.03;;;;;;;25.81;54.70;99472.59;374918;104;1986971;-75
2021/08/10 01:11:37;;;;;;;9.35;7.29;;;;;;;25.63;54.78;99470.80;333487;106;2743071;-75
2021/08/10 01:13:07;;;;;;;9.71;7.24;;;;;;;25.60;54.89;99472.23;379236;106;1961838;-75
2021/08/10 01:14:36;;;;;;;8.97;6.81;;;;;;;25.64;55.24;99469.66;399371;104;1985965;-76
2021/08/10 01:15:45;;;;;;;;;;;;;;;25.53;55.07;99462.73;383511;105;1960988;-75
2021/08/10 01:17:30;;;;;;;9.84;6.99;;;;;;;25.57;55.26;99456.27;393929;104;1985962;-76
2021/08/10 01:18:59;;;;;;;9.78;7.11;;;;;;;25.59;55.35;99459.55;369021;108;2934015;-74
2021/08/10 01:20:26;;;;;;;8.88;7.01;;;;;;;25.50;54.92;99464.16;313876;112;2113919;-75
2021/08/10 01:21:41;;;;;;;9.39;7.21;;;;;;;25.58;55.16;99460.66;394972;104;1986943;-73
2021/08/10 01:22:49;;;;;;;10.33;6.61;;;;;;;25.47;55.20;99462.02;373409;107;1962018;-75
2021/08/10 01:24:08;;;;;;;11.96;8.20;;;;;;;25.60;55.02;99455.64;393850;104;1987867;-76
2021/08/10 01:25:19;;;;;;;;;;;;;;;25.50;55.05;99455.87;377591;107;1962094;-76
2021/08/10 01:26:35;;;;;;;9.44;7.26;;;;;;;25.68;54.95;99448.56;375449;104;1985910;-76
2021/08/10 01:28:07;;;;;;;9.09;6.94;;;;;;;25.58;54.95;99463.42;371110;107;1960896;-75
2021/08/10 01:29:22;;;;;;;10.64;6.77;;;;;;;25.72;54.74;99465.34;385818;106;1986983;-74
2021/08/10 01:30:38;;;;;;;8.87;6.79;;;;;;;25.70;54.63;99460.14;391075;105;1987028;-74
2021/08/10 01:31:52;;;;;;;10.23;6.93;;;;;;;25.77;54.60;99454.16;394819;104;1987984;-77
2021/08/10 01:33:18;;;;;;;9.41;6.86;;;;;;;25.63;54.61;99455.02;374300;106;1961977;-77
2021/08/10 01:34:42;;;;;;;9.33;6.79;;;;;;;25.62;54.87;99467.22;380141;108;1987086;-77
2021/08/10 01:35:55;;;;;;;12.16;6.83;;;;;;;25.54;54.77;99465.20;318649;110;2432032;-77
2021/08/10 01:37:12;;;;;;;9.11;7.03;;;;;;;25.65;54.79;99461.06;386033;104;2856762;-77
2021/08/10 01:38:20;;;;;;;;;;;;;;;25.55;54.78;99458.52;374299;107;1962867;-76
2021/08/10 01:39:29;;;;;;;10.44;6.42;;;;;;;25.57;54.55;99456.27;370945;107;1961039;-75
2021/08/10 01:40:44;;;;;;;9.53;6.96;;;;;;;25.69;54.68;99452.14;386254;106;1986997;-76
2021/08/10 01:41:52;;;;;;;8.72;6.44;;;;;;;25.49;54.87;99462.54;296193;110;2348991;-74
2021/08/10 01:43:25;;;;;;;9.98;7.17;;;;;;;25.57;54.91;99456.27;405870;99;1986887;-75
2021/08/10 01:44:33;;;;;;;8.67;6.34;;;;;;;25.43;54.93;99459.07;391401;102;1961988;-76
2021/08/10 01:45:42;;;;;;;8.35;6.18;;;;;;;25.43;54.76;99460.99;347468;104;2451125;-76
2021/08/10 01:46:56;;;;;;;8.88;6.42;;;;;;;25.52;54.98;99452.80;396368;104;1986031;-76
2021/08/10 01:48:02;;;;;;;8.74;6.64;;;;;;;25.42;54.80;99459.37;370290;105;1962090;-76
2021/08/10 01:49:11;;;;;;;8.58;6.78;;;;;;;25.48;54.63;99449.82;375313;105;1962043;-76
2021/08/10 01:50:24;;;;;;;9.98;6.36;;;;;;;25.48;55.08;99452.59;385406;106;1988056;-76
2021/08/10 01:51:35;;;;;;;9.28;6.68;;;;;;;25.36;55.05;99452.32;367707;107;1963055;-76
2021/08/10 01:52:48;;;;;;;11.41;7.26;;;;;;;25.51;55.15;99446.46;321320;105;2322069;-76
2021/08/10 01:53:58;;;;;;;9.87;7.08;;;;;;;25.36;55.21;99446.79;359247;110;1963059;-77
2021/08/10 01:55:24;;;;;;;9.72;6.76;;;;;;;25.23;55.55;99453.97;326972;109;2607878;-77
2021/08/10 01:56:56;;;;;;;8.70;6.61;;;;;;;25.32;55.30;99426.41;409041;99;2071961;-77
2021/08/10 01:58:10;;;;;;;10.04;7.90;;;;;;;25.40;55.27;99451.40;355675;104;2664923;-77
2021/08/10 01:59:34;;;;;;;8.97;6.59;;;;;;;25.24;55.48;99444.53;338776;109;1964790;-77
2021/08/10 02:00:51;;;;;;;9.48;6.57;;;;;;;25.27;55.67;99443.94;386059;105;1986005;-76
2021/08/10 02:01:59;;;;;;;9.78;6.49;;;;;;;25.14;55.56;99448.32;366425;109;1961978;-76
2021/08/10 02:03:28;;;;;;;8.78;6.62;;;;;;;25.16;55.52;99445.27;298939;109;2374755;-77
2021/08/10 02:04:43;;;;;;;8.75;6.76;;;;;;;25.07;56.10;99444.33;370231;106;1987950;-76
2021/08/10 02:05:50;;;;;;;10.61;7.12;;;;;;;24.95;56.14;99442.91;367896;110;1962000;-76
2021/08/10 02:06:58;;;;;;;8.27;6.08;;;;;;;24.86;56.50;99449.44;364624;110;1961966;-76
2021/08/10 02:08:12;;;;;;;9.85;6.81;;;;;;;24.94;56.65;99440.44;380666;104;2989971;-75
2021/08/10 02:09:20;;;;;;;10.38;7.01;;;;;;;24.81;56.70;99438.48;364330;109;1960907;-77
2021/08/10 02:10:32;;;;;;;9.98;6.61;;;;;;;24.91;56.89;99433.58;393418;104;1984789;-76
2021/08/10 02:11:47;;;;;;;10.52;6.95;;;;;;;24.88;56.99;99441.67;390255;104;2071840;-77
2021/08/10 02:13:14;;;;;;;8.68;6.87;;;;;;;24.75;56.87;99443.30;358303;107;1961014;-76
2021/08/10 02:14:27;;;;;;;10.06;6.57;;;;;;;24.91;56.73;99439.10;365529;106;1993788;-75
2021/08/10 02:15:38;;;;;;;9.93;6.41;;;;;;;24.83;56.56;99452.81;371903;107;1960788;-75
2021/08/10 02:17:07;;;;;;;9.39;7.11;;;;;;;24.75;56.76;99443.30;324510;109;2760870;-76
2021/08/10 02:18:19;;;;;;;9.12;6.49;;;;;;;24.86;56.71;99446.67;385287;104;1986953;-75
2021/08/10 02:19:36;;;;;;;11.32;7.25;;;;;;;24.71;56.78;99447.78;369431;107;1960872;-76
2021/08/10 02:20:45;;;;;;;8.71;6.66;;;;;;;24.77;56.82;99449.34;374860;107;1960890;-76
2021/08/10 02:22:07;;;;;;;8.55;6.37;;;;;;;24.75;57.26;99446.87;387240;106;1985924;-76
2021/08/10 02:23:24;;;;;;;7.54;5.90;;;;;;;24.71;57.41;99445.83;388462;104;1986991;-77
2021/08/10 02:25:01;;;;;;;10.47;6.92;;;;;;;24.64;57.09;99450.14;374633;107;1962900;-77
2021/08/10 02:26:15;;;;;;;10.48;7.11;;;;;;;24.70;57.38;99443.39;388079;106;1986961;-75
2021/08/10 02:27:42;;;;;;;8.67;6.44;;;;;;;24.51;57.53;99440.70;368566;108;1961851;-74
2021/08/10 02:29:06;;;;;;;9.73;6.73;;;;;;;24.55;57.39;99448.05;333013;111;1962022;-75
2021/08/10 02:30:30;;;;;;;8.62;6.51;;;;;;;24.63;57.52;99438.25;394777;104;1961954;-75
2021/08/10 02:31:37;;;;;;;8.49;6.64;;;;;;;24.53;57.38;99439.28;301849;107;2358013;-75
2021/08/10 02:32:51;;;;;;;9.04;6.59;;;;;;;24.70;57.26;99443.39;394368;103;1973057;-75
2021/08/10 02:33:58;;;;;;;8.43;6.47;;;;;;;24.60;57.26;99447.15;347539;107;1962966;-74
2021/08/10 02:35:10;;;;;;;9.71;6.39;;;;;;;24.63;57.62;99449.30;388635;106;1962010;-76
2021/08/10 02:36:19;;;;;;;10.71;7.06;;;;;;;24.52;57.24;99445.09;332046;109;2597967;-76
2021/08/10 02:37:46;;;;;;;9.98;7.30;;;;;;;24.50;57.30;99448.14;351326;109;1960791;-75
2021/08/10 02:38:53;;;;;;;9.12;6.46;;;;;;;24.46;57.39;99444.37;316954;108;2836830;-76
2021/08/10 02:40:08;;;;;;;8.97;6.64;;;;;;;24.54;57.86;99451.95;396502;103;1963738;-77
2021/08/10 02:41:18;;;;;;;10.37;6.90;;;;;;;24.39;57.72;99441.14;378325;107;1967812;-75
2021/08/10 02:42:31;;;;;;;11.46;7.07;;;;;;;24.52;58.03;99448.66;395547;101;1984802;-75
2021/08/10 02:43:40;;;;;;;9.75;7.29;;;;;;;24.43;57.65;99436.66;368101;105;1960851;-76
2021/08/10 02:45:04;;;;;;;9.40;6.23;;;;;;;24.43;57.66;99444.95;371112;105;1960950;-76
2021/08/10 02:46:16;;;;;;;10.04;7.14;;;;;;;24.55;57.76;99448.05;396400;103;1963731;-75
2021/08/10 02:47:29;;;;;;;9.02;6.43;;;;;;;24.61;57.59;99446.05;396036;104;1984769;-76
2021/08/10 02:48:35;;;;;;;10.33;6.89;;;;;;;24.43;57.86;99449.66;343532;103;2582819;-75
2021/08/10 02:49:47;;;;;;;8.42;6.49;;;;;;;24.56;57.61;99454.42;396861;103;1960784;-76
2021/08/10 02:50:53;;;;;;;10.43;7.46;;;;;;;24.41;57.88;99454.66;374587;105;1968733;-75
2021/08/10 02:52:07;;;;;;;9.68;7.04;;;;;;;24.53;57.69;99452.23;358271;104;2600759;-76
2021/08/10 02:53:13;;;;;;;9.25;6.71;;;;;;;24.40;57.86;99447.47;374467;107;1960771;-77
2021/08/10 02:54:38;;;;;;;9.07;7.03;;;;;;;24.35;57.94;99451.98;370324;108;1960704;-76
2021/08/10 02:55:50;;;;;;;10.69;7.61;;;;;;;24.31;58.06;99447.36;371171;109;1960733;-76
2021/08/10 02:57:26;;;;;;;9.29;7.01;;;;;;;24.70;57.50;99448.91;393660;101;1985799;-75
2021/08/10 02:58:35;;;;;;;9.89;7.58;;;;;;;24.60;57.38;99451.86;371948;104;2852802;-76
2021/08/10 02:59:51;;;;;;;9.91;7.26;;;;;;;24.84;56.96;99454.45;375195;104;1984802;-76
2021/08/10 03:01:01;;;;;;;10.90;7.04;;;;;;;24.71;56.96;99456.88;325730;106;2085751;-77
2021/08/10 03:02:29;;;;;;;9.26;6.82;;;;;;;24.72;56.88;99457.72;371584;107;1960873;-77
2021/08/10 03:03:43;;;;;;;8.87;6.38;;;;;;;24.92;56.72;99449.02;394552;102;1984807;-76
2021/08/10 03:04:56;;;;;;;9.46;6.83;;;;;;;24.72;56.89;99450.24;374120;107;1961052;-76
2021/08/10 03:06:10;;;;;;;8.65;6.56;;;;;;;24.81;56.86;99457.83;387151;104;2840024;-76
2021/08/10 03:07:19;;;;;;;8.65;6.44;;;;;;;24.57;57.23;99462.38;376260;107;1960912;-76
2021/08/10 03:08:48;;;;;;;9.59;7.13;;;;;;;24.60;57.04;99455.44;365411;109;1960897;-76
2021/08/10 03:10:21;;;;;;;10.10;6.94;;;;;;;24.65;57.29;99457.29;406977;101;1984842;-77
2021/08/10 03:11:31;;;;;;;8.87;6.77;;;;;;;24.61;57.28;99464.53;387671;103;1960705;-78
2021/08/10 03:12:49;;;;;;;10.12;7.43;;;;;;;24.72;57.15;99461.30;388393;106;1986061;-76
2021/08/10 03:13:56;;;;;;;12.19;7.34;;;;;;;24.55;57.21;99459.09;316501;108;2183007;-77
2021/08/10 03:15:09;;;;;;;11.00;6.89;;;;;;;24.70;57.09;99463.53;394343;104;1962017;-77
2021/08/10 03:16:16;;;;;;;10.34;7.87;;;;;;;24.51;57.34;99466.37;366865;107;2911022;-76
2021/08/10 03:17:43;;;;;;;10.96;7.27;;;;;;;24.48;57.49;99460.64;338340;107;1983838;-76
2021/08/10 03:19:00;;;;;;;9.74;6.79;;;;;;;24.62;57.50;99458.72;356113;104;2689990;-75
2021/08/10 03:20:10;;;;;;;9.01;7.13;;;;;;;24.54;57.28;99460.23;366777;107;2849983;-76
2021/08/10 03:21:23;;;;;;;10.03;7.52;;;;;;;24.60;57.58;99463.72;337340;104;2235317;-75
2021/08/10 03:22:31;;;;;;;8.76;7.53;;;;;;;24.50;57.32;99456.42;370666;108;1961990;-76
2021/08/10 03:23:55;;;;;;;9.13;6.66;;;;;;;24.57;57.15;99456.05;364498;107;1963860;-76
2021/08/10 03:25:10;;;;;;;10.02;7.19;;;;;;;24.88;56.76;99447.20;336990;104;2259006;-77
2021/08/10 03:26:17;;;;;;;9.39;7.54;;;;;;;24.77;56.80;99454.86;377405;106;1964033;-76
2021/08/10 03:27:24;;;;;;;10.41;7.78;;;;;;;24.79;56.61;99458.11;348738;107;2459992;-76
2021/08/10 03:28:32;;;;;;;10.66;7.67;;;;;;;24.70;56.80;99460.77;367621;108;1961991;-76
2021/08/10 03:29:40;;;;;;;10.06;7.33;;;;;;;24.66;56.83;99458.91;353048;109;2864952;-76
2021/08/10 03:30:49;;;;;;;10.57;7.78;;;;;;;24.67;56.86;99458.63;369437;109;1961960;-77
2021/08/10 03:32:04;;;;;;;11.02;7.72;;;;;;;24.75;57.09;99459.87;387204;106;1984747;-78
2021/08/10 03:33:10;;;;;;;9.86;8.07;;;;;;;24.60;57.13;99460.95;333942;108;1963045;-76
2021/08/10 03:34:18;;;;;;;9.79;7.94;;;;;;;24.59;57.12;99467.62;360770;110;1963041;-76
2021/08/10 03:35:30;;;;;;;12.04;8.46;;;;;;;24.60;57.44;99466.48;354215;106;2028972;-75
2021/08/10 03:36:36;;;;;;;11.74;8.56;;;;;;;24.41;57.54;99462.94;369895;109;1963078;-76
2021/08/10 03:37:43;;;;;;;10.19;8.10;;;;;;;24.11;57.58;99421.75;364472;109;1960946;-77
2021/08/10 03:38:57;;;;;;;10.08;7.72;;;;;;;24.48;57.81;99471.69;361450;104;2396765;-76
2021/08/10 03:40:07;;;;;;;10.32;7.91;;;;;;;24.40;57.81;99467.64;373896;107;1962245;-77
2021/08/10 03:41:23;;;;;;;9.72;8.06;;;;;;;24.41;58.13;99468.45;386934;106;1985866;-77
2021/08/10 03:42:29;;;;;;;12.08;8.32;;;;;;;24.33;57.93;99464.45;370376;108;1962093;-77
2021/08/10 03:43:54;;;;;;;11.64;7.77;;;;;;;24.44;57.72;99473.37;368384;108;1962043;-77
2021/08/10 03:45:14;;;;;;;11.22;8.20;;;;;;;24.48;57.69;99466.98;383570;103;2036984;-77
2021/08/10 03:46:21;;;;;;;11.04;8.37;;;;;;;24.45;57.58;99463.98;377841;106;1963916;-75
2021/08/10 03:47:35;;;;;;;11.86;7.70;;;;;;;24.60;57.50;99463.72;395794;104;1962938;-76
2021/08/10 03:48:44;;;;;;;13.30;7.44;;;;;;;24.50;57.26;99467.47;376114;107;1968879;-77
2021/08/10 03:49:58;;;;;;;13.18;7.61;;;;;;;24.45;57.62;99467.59;393945;104;1985861;-74
2021/08/10 03:51:06;;;;;;;10.57;8.47;;;;;;;24.37;57.66;99465.46;374857;106;1962000;-75
2021/08/10 03:52:29;;;;;;;11.29;7.71;;;;;;;24.35;57.60;99467.73;374449;106;1964069;-75
2021/08/10 03:53:35;;;;;;;12.86;9.26;;;;;;;24.46;57.46;99465.64;374516;105;1962051;-77
2021/08/10 03:54:48;;;;;;;10.44;8.18;;;;;;;24.52;57.47;99469.94;395927;104;1985938;-76
2021/08/10 03:55:55;;;;;;;9.34;7.29;;;;;;;24.41;57.73;99460.17;335610;107;2026935;-77
2021/08/10 03:57:04;;;;;;;12.67;8.18;;;;;;;24.43;57.49;99461.52;374397;107;1962014;-77
2021/08/10 03:58:25;;;;;;;10.71;8.31;;;;;;;24.46;57.70;99458.17;347254;104;2722940;-77
2021/08/10 03:59:32;;;;;;;;;;;;;;;24.33;57.85;99465.26;374078;108;1961020;-77
2021/08/10 04:00:39;;;;;;;13.73;8.46;;;;;;;24.53;57.41;99460.52;371749;109;1960935;-78
2021/08/10 04:01:53;;;;;;;10.95;8.38;;;;;;;24.86;56.76;99458.54;386899;106;1985855;-78
2021/08/10 04:03:00;;;;;;;10.93;7.60;;;;;;;24.83;56.28;99464.68;365103;110;1962006;-76
2021/08/10 04:04:08;;;;;;;10.47;7.63;;;;;;;24.83;56.20;99464.68;333903;110;1961051;-77
2021/08/10 04:05:22;;;;;;;11.32;7.45;;;;;;;24.97;56.12;99456.39;319662;106;2351069;-77
2021/08/10 04:06:31;;;;;;;10.53;7.63;;;;;;;24.84;56.12;99455.25;367186;109;1961936;-77
2021/08/10 04:07:43;;;;;;;9.43;6.99;;;;;;;24.93;56.18;99453.44;392663;104;1985946;-75
2021/08/10 04:08:50;;;;;;;10.36;7.49;;;;;;;24.90;55.96;99455.97;366598;110;1961966;-76
2021/08/10 04:10:03;;;;;;;11.14;8.25;;;;;;;24.94;56.18;99459.77;356648;106;2073039;-77
2021/08/10 04:11:38;;;;;;;10.76;8.04;;;;;;;24.99;56.10;99456.91;385423;105;2071999;-76
2021/08/10 04:12:45;;;;;;;9.53;7.16;;;;;;;24.89;55.97;99462.64;368129;108;1962030;-77
2021/08/10 04:14:00;;;;;;;11.56;8.99;;;;;;;25.00;55.97;99459.35;327606;109;2191938;-76
2021/08/10 04:15:08;;;;;;;10.55;8.03;;;;;;;24.93;55.87;99458.15;352094;114;1962020;-77
2021/08/10 04:16:23;;;;;;;10.73;7.11;;;;;;;24.99;55.97;99452.20;393840;104;1986919;-77
2021/08/10 04:17:31;;;;;;;9.18;6.59;;;;;;;24.90;55.94;99467.02;374753;107;1964169;-75
2021/08/10 04:18:55;;;;;;;11.38;7.74;;;;;;;24.93;55.77;99460.91;376540;107;1962031;-77
2021/08/10 04:20:09;;;;;;;10.42;7.77;;;;;;;25.03;55.71;99454.34;388346;106;2072052;-76
2021/08/10 04:21:20;;;;;;;9.29;7.28;;;;;;;24.95;55.57;99464.16;295790;105;2314045;-77
2021/08/10 04:22:26;;;;;;;9.29;6.88;;;;;;;24.94;55.63;99454.25;341913;116;1961966;-78
2021/08/10 04:23:39;;;;;;;9.28;7.12;;;;;;;24.94;55.88;99452.30;393724;104;1961964;-77
2021/08/10 04:24:45;;;;;;;12.78;8.11;;;;;;;24.88;55.80;99461.01;365575;106;2935007;-77
2021/08/10 04:25:57;;;;;;;10.08;7.52;;;;;;;25.05;55.74;99450.15;384014;106;2071029;-77
2021/08/10 04:27:04;;;;;;;12.35;8.06;;;;;;;25.04;55.47;99459.58;364582;109;1962987;-77
2021/08/10 04:28:16;;;;;;;10.83;7.98;;;;;;;25.16;55.47;99456.31;340990;106;2108017;-76
2021/08/10 04:29:24;;;;;;;9.69;7.48;;;;;;;25.15;55.13;99449.97;363693;109;1962038;-76
2021/08/10 04:30:48;;;;;;;10.17;7.04;;;;;;;25.15;55.09;99451.89;361165;109;1963451;-76
2021/08/10 04:32:00;;;;;;;10.61;7.90;;;;;;;25.14;55.43;99458.53;383420;106;2072941;-74
2021/08/10 04:33:08;;;;;;;9.82;6.76;;;;;;;25.11;55.31;99451.70;318925;109;2800957;-76
2021/08/10 04:34:14;;;;;;;9.67;7.01;;;;;;;25.27;54.88;99452.23;360283;110;1961922;-76
2021/08/10 04:35:27;;;;;;;11.02;7.41;;;;;;;25.30;54.88;99456.30;389099;104;2868010;-76
2021/08/10 04:36:33;;;;;;;12.80;7.00;;;;;;;25.19;54.76;99456.54;380354;105;1961005;-77
2021/08/10 04:37:39;;;;;;;9.41;6.84;;;;;;;25.21;54.75;99461.74;379372;105;1961999;-77
2021/08/10 04:38:45;;;;;;;11.63;7.88;;;;;;;25.28;54.47;99455.81;376015;107;1962049;-75
2021/08/10 04:39:51;;;;;;;9.76;7.11;;;;;;;25.27;54.53;99462.45;374877;107;1962069;-75
2021/08/10 04:41:04;;;;;;;10.54;6.76;;;;;;;25.31;54.66;99467.06;348919;106;2653987;-75
2021/08/10 04:42:20;;;;;;;11.21;6.56;;;;;;;25.20;54.65;99457.35;367767;109;1961806;-77
2021/08/10 04:43:34;;;;;;;11.24;7.39;;;;;;;25.35;54.61;99465.33;390100;104;2074047;-77
2021/08/10 04:44:39;;;;;;;10.06;7.44;;;;;;;25.29;54.45;99452.72;307004;107;2312933;-77
2021/08/10 04:45:46;;;;;;;10.13;6.59;;;;;;;25.47;54.16;99453.73;375660;107;1961071;-78
2021/08/10 04:46:52;;;;;;;9.91;7.01;;;;;;;25.60;53.92;99454.83;376098;107;1961889;-76
2021/08/10 04:48:04;;;;;;;14.73;7.61;;;;;;;25.75;53.67;99440.66;386728;105;1984751;-77
2021/08/10 04:49:11;;;;;;;9.19;6.39;;;;;;;25.68;53.56;99448.56;362539;109;1960765;-77
2021/08/10 04:50:23;;;;;;;9.54;7.00;;;;;;;25.85;53.41;99456.21;395024;104;1984809;-76
2021/08/10 04:51:30;;;;;;;8.77;6.58;;;;;;;25.76;53.33;99447.81;373758;107;1962973;-76
2021/08/10 04:52:36;;;;;;;8.98;6.53;;;;;;;25.80;53.22;99454.38;333754;105;2701818;-77
2021/08/10 04:53:43;;;;;;;9.83;6.38;;;;;;;25.82;53.25;99451.27;365906;107;1960800;-76
2021/08/10 04:54:57;;;;;;;10.66;6.91;;;;;;;25.81;53.46;99449.66;396046;104;1963921;-77
2021/08/10 04:56:03;;;;;;;11.05;6.39;;;;;;;25.71;53.25;99445.16;374922;107;1968911;-75
2021/08/10 04:57:15;;;;;;;9.57;6.45;;;;;;;25.98;53.23;99448.99;394733;101;1985957;-77
2021/08/10 04:58:22;;;;;;;8.95;6.81;;;;;;;25.87;52.76;99445.66;373050;106;1960770;-76
2021/08/10 04:59:33;;;;;;;10.84;6.69;;;;;;;26.06;52.71;99449.05;393971;104;1961999;-76
2021/08/10 05:00:41;;;;;;;8.51;6.62;;;;;;;25.91;52.80;99454.14;377455;106;1967879;-78
2021/08/10 05:02:07;;;;;;;9.86;6.93;;;;;;;25.92;52.79;99450.26;366130;107;2931022;-78
2021/08/10 05:03:20;;;;;;;9.94;6.76;;;;;;;26.12;52.49;99440.62;380663;106;1985723;-79
2021/08/10 05:04:27;;;;;;;10.65;6.52;;;;;;;26.05;52.31;99447.43;363036;109;1960856;-77
2021/08/10 05:05:39;;;;;;;11.54;7.53;;;;;;;26.23;52.31;99439.27;334014;103;2279699;-77
2021/08/10 05:06:50;;;;;;;9.09;6.32;;;;;;;26.16;52.24;99442.45;375340;107;1967708;-77
2021/08/10 05:08:16;;;;;;;9.65;6.66;;;;;;;26.19;52.15;99438.24;325436;107;2855048;-77
2021/08/10 05:09:29;;;;;;;11.07;6.54;;;;;;;26.27;52.09;99443.83;395143;104;1986049;-77
2021/08/10 05:10:36;;;;;;;9.12;6.27;;;;;;;26.03;52.42;99446.92;378356;107;1962027;-76
2021/08/10 05:11:42;;;;;;;11.99;6.33;;;;;;;26.04;52.48;99436.69;377467;105;1961993;-75
2021/08/10 05:12:55;;;;;;;9.59;6.85;;;;;;;26.20;52.33;99442.66;387509;104;2072025;-76
2021/08/10 05:14:02;;;;;;;10.23;6.57;;;;;;;26.02;52.36;99439.76;358956;107;1968925;-77
2021/08/10 05:15:14;;;;;;;9.93;6.74;;;;;;;26.22;52.32;99445.91;389879;104;2072046;-76
2021/08/10 05:16:21;;;;;;;9.26;6.53;;;;;;;26.17;52.24;99443.27;376221;107;1963837;-77
2021/08/10 05:17:34;;;;;;;8.29;6.21;;;;;;;26.30;52.16;99439.61;394098;103;1966045;-77
2021/08/10 05:18:39;;;;;;;9.49;6.47;;;;;;;26.14;52.20;99438.37;357684;111;1961941;-77
2021/08/10 05:19:52;;;;;;;9.47;6.40;;;;;;;26.30;52.09;99436.84;395073;104;1986067;-78
2021/08/10 05:20:58;;;;;;;10.86;6.17;;;;;;;26.21;52.12;99444.29;327787;106;2105010;-76
2021/08/10 05:22:10;;;;;;;8.78;6.43;;;;;;;26.30;52.08;99445.98;392624;104;1986005;-76
2021/08/10 05:23:18;;;;;;;11.78;6.09;;;;;;;26.15;52.16;99442.79;371529;106;1962014;-76
2021/08/10 05:24:42;;;;;;;8.95;5.93;;;;;;;26.15;52.12;99438.06;369492;108;1964040;-78
2021/08/10 05:25:54;;;;;;;8.05;6.06;;;;;;;26.23;52.36;99445.61;359279;104;2590984;-78
2021/08/10 05:27:00;;;;;;;8.37;5.69;;;;;;;26.21;52.18;99444.29;355199;106;1962075;-77
2021/08/10 05:28:12;;;;;;;8.76;6.10;;;;;;;26.44;51.93;99440.37;393108;104;1986079;-76
2021/08/10 05:29:17;;;;;;;8.71;5.76;;;;;;;26.40;51.78;99436.58;372102;107;1962039;-76
2021/08/10 05:30:25;;;;;;;8.42;5.97;;;;;;;26.45;51.51;99441.99;374210;106;1963014;-78
2021/08/10 05:31:31;;;;;;;10.74;5.92;;;;;;;26.50;51.64;99436.31;313619;107;2263915;-80
2021/08/10 05:32:36;;;;;;;9.96;6.19;;;;;;;26.64;51.27;99432.67;360761;107;1961891;-77
2021/08/10 05:33:49;;;;;;;10.23;5.97;;;;;;;26.65;51.38;99439.86;394542;104;1985985;-77
2021/08/10 05:34:56;;;;;;;9.24;6.03;;;;;;;26.44;51.62;99434.02;377353;107;1961942;-77